createdAt,value
2022-11-16T07:49:33.836Z,99518.06
2022-11-16T07:52:00.841Z,99518.06
2022-11-16T07:54:27.572Z,99524.59
2022-11-16T07:56:54.371Z,99519.31
2022-11-16T07:59:21.260Z,99515.75
2022-11-16T08:01:48.431Z,99521.97
2022-11-16T08:04:17.553Z,99519.41
2022-11-16T08:06:44.820Z,99522.81
2022-11-16T08:09:12.001Z,99527.19
2022-11-16T08:11:39.220Z,99525.69
2022-11-16T08:14:06.041Z,99522.94
2022-11-16T08:16:33.444Z,99511.34
2022-11-16T08:19:02.379Z,99515.66
2022-11-16T08:21:29.232Z,99512.94
2022-11-16T08:23:58.682Z,99505.03
2022-11-16T08:26:26.306Z,99507.63
2022-11-16T08:28:54.041Z,99498.75
2022-11-16T08:31:24.570Z,99489.97
2022-11-16T08:33:54.400Z,99481.16
2022-11-16T08:36:21.699Z,99497.63
2022-11-16T08:38:50.600Z,99493.19
2022-11-16T08:41:18.571Z,99478.22
2022-11-16T08:43:47.300Z,99491.25
2022-11-16T08:46:14.860Z,99488.59
2022-11-16T08:48:41.753Z,99488.66
2022-11-16T08:51:19.331Z,99487.66
2022-11-16T08:53:48.501Z,99498.16
2022-11-16T08:56:17.627Z,99494.78
2022-11-16T08:58:47.073Z,99494.62
2022-11-16T09:01:17.410Z,99501.62
2022-11-16T09:03:44.404Z,99500.81
2022-11-16T09:06:12.289Z,99500.19
2022-11-16T09:08:40.551Z,99503.75
2022-11-16T09:11:09.103Z,99501.81
2022-11-16T09:13:36.010Z,99505.41
2022-11-16T09:16:03.531Z,99501.88
2022-11-16T09:18:30.886Z,99497.44
2022-11-16T09:20:58.218Z,99500.81
2022-11-16T09:23:25.821Z,99477.16
2022-11-16T09:25:53.402Z,99484.09
2022-11-16T09:28:22.678Z,99475.31
2022-11-16T09:30:51.376Z,99472.56
2022-11-16T09:33:18.433Z,99457.63
2022-11-16T09:35:45.489Z,99458.41
2022-11-16T09:38:17.673Z,99456.53
2022-11-16T09:40:51.540Z,99462.75
2022-11-16T09:43:18.284Z,99461.84
2022-11-16T09:46:05.469Z,99467.19
2022-11-16T09:48:36.418Z,99468.03
2022-11-16T09:51:08.357Z,99466.19
2022-11-16T09:53:50.993Z,99455.78
2022-11-16T09:56:26.368Z,99458.47
2022-11-16T09:59:01.167Z,99445.97
2022-11-16T10:01:54.617Z,99443.25
2022-11-16T10:05:06.550Z,99434.47
2022-11-16T10:07:41.785Z,99432.62
2022-11-16T10:10:16.978Z,99414.22
2022-11-16T10:13:00.311Z,99419.38
2022-11-16T10:15:42.270Z,99423.78
2022-11-16T10:18:08.982Z,99422.81
2022-11-16T10:21:21.520Z,99420.22
2022-11-16T10:23:54.416Z,99418.50
2022-11-16T10:26:48.290Z,99417.53
2022-11-16T10:29:37.802Z,99408.72
2022-11-16T10:32:17.481Z,99413.03
2022-11-16T10:34:44.227Z,99399.78
2022-11-16T10:37:13.375Z,99397.09
2022-11-16T10:39:41.179Z,99396.00
2022-11-16T10:42:21.620Z,99388.94
2022-11-16T10:44:58.701Z,99387.03
2022-11-16T10:47:36.848Z,99382.66
2022-11-16T10:50:19.945Z,99381.75
2022-11-16T10:52:46.676Z,99376.47
2022-11-16T10:55:24.473Z,99367.59
2022-11-16T10:57:58.266Z,99367.72
2022-11-16T11:00:44.307Z,99372.00
2022-11-16T11:03:12.134Z,99365.72
2022-11-16T11:05:53.372Z,99355.22
2022-11-16T11:08:31.151Z,99359.47
2022-11-16T11:11:25.573Z,99359.47
2022-11-16T11:14:11.652Z,99355.09
2022-11-16T11:16:41.868Z,99351.50
2022-11-16T11:19:19.101Z,99342.75
2022-11-16T11:21:47.406Z,99341.06
2022-11-16T11:24:43.232Z,99337.72
2022-11-16T11:27:04.763Z,99345.56
2022-11-16T11:29:35.132Z,99337.66
2022-11-16T11:32:19.323Z,99332.31
2022-11-16T11:35:00.398Z,99325.22
2022-11-16T11:37:36.512Z,99319.91
2022-11-16T11:40:24.868Z,99312.78
2022-11-16T11:42:56.364Z,99311.78
2022-11-16T11:45:27.909Z,99292.50
2022-11-16T11:48:06.972Z,99307.37
2022-11-16T11:50:50.076Z,99301.19
2022-11-16T11:53:35.666Z,99308.16
2022-11-16T11:56:03.156Z,99310.78
2022-11-16T11:58:33.028Z,99299.44
2022-11-16T12:01:22.314Z,99309.16
2022-11-16T12:04:18.437Z,99295.06
2022-11-16T12:07:03.699Z,99288.12
2022-11-16T12:09:40.872Z,99296.91
2022-11-16T12:12:22.721Z,99291.56
2022-11-16T12:15:45.905Z,99292.66
2022-11-16T12:18:27.107Z,99297.78
2022-11-16T12:20:59.537Z,99299.56
2022-11-16T12:23:49.028Z,99297.00
2022-11-16T12:26:24.610Z,99297.06
2022-11-16T12:29:00.535Z,99299.72
2022-11-16T12:31:42.482Z,99299.78
2022-11-16T12:34:37.050Z,99292.03
2022-11-16T12:37:16.129Z,99292.03
2022-11-16T12:40:20.705Z,99287.50
2022-11-16T12:42:57.428Z,99285.72
2022-11-16T12:45:32.404Z,99281.38
2022-11-16T12:48:05.184Z,99282.16
2022-11-16T12:50:45.364Z,99280.44
2022-11-16T12:53:34.884Z,99283.94
2022-11-16T12:56:16.904Z,99274.19
2022-11-16T12:58:54.476Z,99267.06
2022-11-16T13:01:44.668Z,99269.63
2022-11-16T13:04:18.025Z,99263.56
2022-11-16T13:06:54.068Z,99264.25
2022-11-16T13:09:25.683Z,99261.56
2022-11-16T13:11:56.054Z,99256.25
2022-11-16T13:14:32.731Z,99262.41
2022-11-16T13:17:02.620Z,99258.91
2022-11-16T13:19:30.134Z,99265.12
2022-11-16T13:22:07.597Z,99255.47
2022-11-16T13:24:49.711Z,99250.97
2022-11-16T13:27:31.157Z,99251.91
2022-11-16T13:30:19.286Z,99255.41
2022-11-16T13:33:26.783Z,99254.56
2022-11-16T13:35:53.703Z,99253.59
2022-11-16T13:38:53.192Z,99258.97
2022-11-16T13:41:37.376Z,99251.03
2022-11-16T13:44:13.201Z,99255.72
2022-11-16T13:46:55.692Z,99260.88
2022-11-16T13:49:27.668Z,99253.78
2022-11-16T13:52:17.198Z,99253.84
2022-11-16T13:54:52.152Z,99258.22
2022-11-16T13:57:27.208Z,99255.59
2022-11-16T14:00:03.955Z,99249.34
2022-11-16T14:02:35.073Z,99253.84
2022-11-16T14:05:33.998Z,99251.12
2022-11-16T14:08:24.009Z,99252.06
2022-11-16T14:10:50.688Z,99246.84
2022-11-16T14:13:47.288Z,99235.41
2022-11-16T14:16:20.152Z,99238.00
2022-11-16T14:18:58.973Z,99236.28
2022-11-16T14:21:26.755Z,99236.34
2022-11-16T14:24:21.673Z,99233.72
2022-11-16T14:27:06.436Z,99237.22
2022-11-16T14:30:02.648Z,99223.97
2022-11-16T14:32:36.988Z,99224.84
2022-11-16T14:35:22.796Z,99221.34
2022-11-16T14:37:58.547Z,99218.69
2022-11-16T14:40:25.843Z,99190.88
2022-11-16T14:43:20.012Z,99216.13
2022-11-16T14:45:52.986Z,99211.78
2022-11-16T14:48:22.186Z,99212.75
2022-11-16T14:51:10.775Z,99219.69
2022-11-16T14:53:41.384Z,99203.16
2022-11-16T14:56:17.087Z,99218.13
2022-11-16T14:59:01.430Z,99223.44
2022-11-16T15:01:39.024Z,99217.25
2022-11-16T15:04:11.219Z,99213.75
2022-11-16T15:07:03.767Z,99204.94
2022-11-16T15:09:37.796Z,99203.16
2022-11-16T15:12:26.239Z,99201.44
2022-11-16T15:14:56.725Z,99205.03
2022-11-16T15:17:31.943Z,99210.28
2022-11-16T15:20:02.576Z,99193.87
2022-11-16T15:22:31.887Z,99209.53
2022-11-16T15:25:00.843Z,99206.91
2022-11-16T15:27:28.083Z,99201.72
2022-11-16T15:29:55.000Z,99202.53
2022-11-16T15:32:21.850Z,99199.03
2022-11-16T15:34:53.143Z,99198.97
2022-11-16T15:37:30.089Z,99188.31
2022-11-16T15:39:58.567Z,99188.41
2022-11-16T15:42:28.169Z,99180.44
2022-11-16T15:44:56.157Z,99183.94
2022-11-16T15:47:23.656Z,99185.75
2022-11-16T15:49:53.070Z,99190.25
2022-11-16T15:52:43.457Z,99191.19
2022-11-16T15:55:31.947Z,99191.97
2022-11-16T15:58:07.816Z,99188.47
2022-11-16T16:00:37.036Z,99180.63
2022-11-16T16:03:24.319Z,99187.75
2022-11-16T16:05:52.728Z,99185.03
2022-11-16T16:08:36.356Z,99184.19
2022-11-16T16:11:27.344Z,99171.91
2022-11-16T16:14:00.163Z,99168.47
2022-11-16T16:16:38.298Z,99163.22
2022-11-16T16:19:23.575Z,99178.91
2022-11-16T16:21:50.611Z,99175.41
2022-11-16T16:24:46.302Z,99166.78
2022-11-16T16:27:15.002Z,99173.75
2022-11-16T16:29:42.127Z,99180.84
2022-11-16T16:32:16.160Z,99186.13
2022-11-16T16:34:43.013Z,99185.28
2022-11-16T16:37:13.018Z,99172.25
2022-11-16T16:39:41.007Z,99182.62
2022-11-16T16:42:10.643Z,99163.34
2022-11-16T16:44:37.809Z,99166.00
2022-11-16T16:47:04.915Z,99152.84
2022-11-16T16:49:31.783Z,99144.91
2022-11-16T16:51:58.712Z,99150.19
2022-11-16T16:54:25.663Z,99152.69
2022-11-16T16:56:52.508Z,99154.47
2022-11-16T16:59:19.352Z,99154.56
2022-11-16T17:01:46.282Z,99157.22
2022-11-16T17:04:13.031Z,99161.53
2022-11-16T17:06:46.204Z,99163.28
2022-11-16T17:09:14.038Z,99143.34
2022-11-16T17:11:40.868Z,99149.56
2022-11-16T17:14:08.560Z,99169.41
2022-11-16T17:16:36.357Z,99161.56
2022-11-16T17:19:04.431Z,99156.19
2022-11-16T17:21:32.228Z,99159.78
2022-11-16T17:23:59.328Z,99149.28
2022-11-16T17:26:29.523Z,99151.12
2022-11-16T17:28:57.573Z,99162.44
2022-11-16T17:31:25.861Z,99155.34
2022-11-16T17:33:53.188Z,99147.56
2022-11-16T17:36:20.590Z,99160.75
2022-11-16T17:38:47.505Z,99143.34
2022-11-16T17:41:17.314Z,99150.16
2022-11-16T17:43:46.046Z,99150.09
2022-11-16T17:46:18.720Z,99153.56
2022-11-16T17:48:47.461Z,99146.63
2022-11-16T17:51:17.212Z,99131.91
2022-11-16T17:53:44.753Z,99137.03
2022-11-16T17:56:14.305Z,99143.16
2022-11-16T17:58:42.266Z,99138.78
2022-11-16T18:01:09.543Z,99138.13
2022-11-16T18:03:37.821Z,99138.84
2022-11-16T18:06:08.064Z,99134.41
2022-11-16T18:08:36.891Z,99137.03
2022-11-16T18:11:18.346Z,99129.12
2022-11-16T18:13:46.206Z,99133.53
2022-11-16T18:16:19.537Z,99117.03
2022-11-16T18:18:47.969Z,99123.91
2022-11-16T18:21:20.773Z,99131.75
2022-11-16T18:23:48.646Z,99130.13
2022-11-16T18:26:19.630Z,99105.66
2022-11-16T18:28:48.460Z,99118.81
2022-11-16T18:31:18.102Z,99117.94
2022-11-16T18:33:45.951Z,99126.72
2022-11-16T18:36:13.681Z,99116.22
2022-11-16T18:38:41.004Z,99106.75
2022-11-16T18:41:14.510Z,99091.91
2022-11-16T18:43:47.891Z,99125.78
2022-11-16T18:46:15.339Z,99116.09
2022-11-16T18:48:43.861Z,99114.34
2022-11-16T18:51:11.912Z,99118.78
2022-11-16T18:53:39.312Z,99116.22
2022-11-16T18:56:06.823Z,99121.34
2022-11-16T18:58:50.797Z,99123.22
2022-11-16T19:01:24.494Z,99123.22
2022-11-16T19:03:53.610Z,99125.84
2022-11-16T19:06:21.052Z,99126.78
2022-11-16T19:08:56.037Z,99125.94
2022-11-16T19:11:27.599Z,99105.03
2022-11-16T19:13:57.506Z,99125.88
2022-11-16T19:16:25.553Z,99122.38
2022-11-16T19:18:53.282Z,99126.72
2022-11-16T19:21:22.353Z,99131.13
2022-11-16T19:23:52.412Z,99125.88
2022-11-16T19:26:21.465Z,99129.28
2022-11-16T19:28:50.401Z,99124.00
2022-11-16T19:31:19.110Z,99121.34
2022-11-16T19:33:46.728Z,99122.19
2022-11-16T19:36:19.289Z,99124.84
2022-11-16T19:38:48.363Z,99121.22
2022-11-16T19:41:18.409Z,99114.22
2022-11-16T19:43:45.692Z,99119.50
2022-11-16T19:46:19.749Z,99116.84
2022-11-16T19:48:49.383Z,99117.78
2022-11-16T19:51:19.740Z,99103.81
2022-11-16T19:53:47.447Z,99105.53
2022-11-16T19:56:16.419Z,99107.25
2022-11-16T19:58:43.822Z,99109.94
2022-11-16T20:01:17.547Z,99101.16
2022-11-16T20:03:46.000Z,99093.25
2022-11-16T20:06:16.143Z,99099.53
2022-11-16T20:08:48.545Z,99106.56
2022-11-16T20:11:43.276Z,99096.19
2022-11-16T20:14:12.840Z,99102.25
2022-11-16T20:16:46.275Z,99103.94
2022-11-16T20:19:13.630Z,99112.72
2022-11-16T20:21:44.020Z,99106.66
2022-11-16T20:24:14.107Z,99093.63
2022-11-16T20:26:48.362Z,99084.06
2022-11-16T20:29:17.971Z,99097.03
2022-11-16T20:31:46.348Z,99088.41
2022-11-16T20:34:16.069Z,99088.50
2022-11-16T20:36:45.737Z,99108.31
2022-11-16T20:39:29.349Z,99102.31
2022-11-16T20:41:56.713Z,99090.84
2022-11-16T20:44:23.850Z,99097.03
2022-11-16T20:46:52.865Z,99092.53
2022-11-16T20:49:19.790Z,99095.13
2022-11-16T20:51:47.833Z,99089.91
2022-11-16T20:54:15.334Z,99088.03
2022-11-16T20:56:42.525Z,99087.09
2022-11-16T20:59:09.686Z,99073.88
2022-11-16T21:01:37.285Z,99059.16
2022-11-16T21:04:06.295Z,99054.78
2022-11-16T21:06:33.730Z,99060.69
2022-11-16T21:09:01.961Z,99064.97
2022-11-16T21:11:31.206Z,99064.13
2022-11-16T21:14:16.333Z,99063.22
2022-11-16T21:16:43.585Z,99076.44
2022-11-16T21:19:11.717Z,99066.19
2022-11-16T21:21:40.647Z,99078.31
2022-11-16T21:24:10.792Z,99067.00
2022-11-16T21:26:38.066Z,99079.16
2022-11-16T21:29:05.377Z,99074.75
2022-11-16T21:31:34.218Z,99071.25
2022-11-16T21:34:01.337Z,99075.59
2022-11-16T21:36:30.325Z,99064.50
2022-11-16T21:39:00.551Z,99061.91
2022-11-16T21:41:27.761Z,99080.06
2022-11-16T21:43:54.811Z,99074.97
2022-11-16T21:46:24.844Z,99083.59
2022-11-16T21:48:52.909Z,99051.34
2022-11-16T21:51:21.926Z,99052.12
2022-11-16T21:53:48.938Z,99035.44
2022-11-16T21:56:18.272Z,99039.81
2022-11-16T21:58:46.703Z,99027.53
2022-11-16T22:01:16.102Z,99039.78
2022-11-16T22:03:44.667Z,99023.06
2022-11-16T22:06:34.346Z,99027.47
2022-11-16T22:09:01.586Z,99020.53
2022-11-16T22:11:28.430Z,99013.47
2022-11-16T22:13:55.276Z,99005.72
2022-11-16T22:16:25.004Z,98991.88
2022-11-16T22:18:51.857Z,98999.75
2022-11-16T22:21:18.684Z,99000.72
2022-11-16T22:23:45.535Z,98991.19
2022-11-16T22:26:14.610Z,99002.31
2022-11-16T22:28:41.731Z,99008.59
2022-11-16T22:31:11.970Z,99012.94
2022-11-16T22:33:39.617Z,99023.47
2022-11-16T22:36:10.647Z,99020.94
2022-11-16T22:38:37.810Z,99019.00
2022-11-16T22:41:05.047Z,99020.00
2022-11-16T22:43:32.554Z,99036.69
2022-11-16T22:46:01.762Z,99022.88
2022-11-16T22:48:30.770Z,99048.09
2022-11-16T22:51:05.997Z,99051.56
2022-11-16T22:53:33.341Z,99052.53
2022-11-16T22:56:07.290Z,99042.00
2022-11-16T22:58:36.309Z,99037.50
2022-11-16T23:01:04.081Z,99033.06
2022-11-16T23:03:31.373Z,99019.06
2022-11-16T23:05:58.594Z,99025.19
2022-11-16T23:08:26.406Z,99009.66
2022-11-16T23:11:27.343Z,99023.47
2022-11-16T23:14:13.122Z,99018.47
2022-11-16T23:16:40.864Z,99008.91
2022-11-16T23:19:33.330Z,99020.09
2022-11-16T23:22:19.149Z,99011.53
2022-11-16T23:25:05.491Z,99019.31
2022-11-16T23:27:40.837Z,99021.09
2022-11-16T23:30:12.470Z,99013.31
2022-11-16T23:32:40.779Z,99003.59
2022-11-16T23:35:08.572Z,99007.19
2022-11-16T23:37:35.404Z,98998.62
2022-11-16T23:40:02.204Z,99010.78
2022-11-16T23:42:47.724Z,99010.75
2022-11-16T23:45:15.417Z,99014.16
2022-11-16T23:47:42.251Z,99000.31
2022-11-16T23:50:09.479Z,99025.53
2022-11-16T23:52:36.256Z,99031.72
2022-11-16T23:55:03.066Z,99031.81
2022-11-16T23:57:30.028Z,99030.88
2022-11-16T23:59:56.800Z,99024.59
